Time;durP1;ratioP1;P1;durP2;ratioP2;P2;SDS_P1;SDS_P2;PMS_P1;PMS_P2;Temp;Humidity;BMP_temperature;BMP_pressure;BME280_temperature;BME280_humidity;BME280_pressure;Samples;Min_cycle;Max_cycle;Signal;HPM_P1;HPM_P2
2020/12/03 00:02:16;;;;;;;40.33;29.77;;;;;;;;;;5114508;27;20073;-66
2020/12/03 00:05:02;;;;;;;39.63;29.98;;;;;;;;;;5115054;27;20043;-66
2020/12/03 00:07:48;;;;;;;36.50;27.77;;;;;;;;;;5117513;27;20462;-66
2020/12/03 00:10:34;;;;;;;40.72;29.30;;;;;;;;;;5112400;27;20633;-66
2020/12/03 00:13:25;;;;;;;42.63;28.85;;;;;;;;;;5114333;27;20063;-66
2020/12/03 00:16:11;;;;;;;39.95;28.98;;;;;;;;;;5115418;27;20051;-66
2020/12/03 00:18:57;;;;;;;41.72;28.35;;;;;;;;;;5113077;27;20299;-66
2020/12/03 00:21:45;;;;;;;38.58;29.35;;;;;;;;;;5113575;27;20074;-66
2020/12/03 00:24:31;;;;;;;37.55;28.83;;;;;;;;;;5115133;27;20122;-66
2020/12/03 00:27:17;;;;;;;36.38;27.15;;;;;;;;;;5112792;27;20061;-66
2020/12/03 00:30:06;;;;;;;36.83;26.92;;;;;;;;;;5115881;27;20554;-66
2020/12/03 00:32:53;;;;;;;37.85;28.13;;;;;;;;;;5119440;27;20039;-66
2020/12/03 00:35:39;;;;;;;37.67;28.73;;;;;;;;;;5115150;27;20536;-66
2020/12/03 00:38:26;;;;;;;37.55;26.75;;;;;;;;;;5097122;27;20027;-66
2020/12/03 00:41:13;;;;;;;36.90;25.90;;;;;;;;;;5114506;27;20487;-66
2020/12/03 00:43:59;;;;;;;35.20;25.52;;;;;;;;;;5113595;27;20047;-66
2020/12/03 00:46:45;;;;;;;36.20;26.35;;;;;;;;;;5108331;27;20440;-66
2020/12/03 00:49:31;;;;;;;34.38;26.90;;;;;;;;;;5113662;27;20047;-66
2020/12/03 00:52:17;;;;;;;38.17;25.58;;;;;;;;;;5106503;27;20035;-66
2020/12/03 00:55:04;;;;;;;33.15;25.35;;;;;;;;;;5113839;27;20373;-66
2020/12/03 00:57:50;;;;;;;39.28;27.25;;;;;;;;;;5117482;27;20043;-66
2020/12/03 01:00:35;;;;;;;35.45;26.25;;;;;;;;;;5111257;27;20460;-66
2020/12/03 01:03:21;;;;;;;40.28;27.98;;;;;;;;;;5100265;27;20038;-66
2020/12/03 01:06:07;;;;;;;39.08;27.20;;;;;;;;;;5113974;27;20140;-66
2020/12/03 01:08:53;;;;;;;35.70;24.58;;;;;;;;;;5117027;27;20035;-66
2020/12/03 01:11:38;;;;;;;34.33;25.88;;;;;;;;;;5113904;27;20019;-66
2020/12/03 01:14:24;;;;;;;36.58;27.08;;;;;;;;;;5116206;27;20032;-66
2020/12/03 01:17:12;;;;;;;37.00;26.80;;;;;;;;;;5111470;27;20043;-66
2020/12/03 01:19:58;;;;;;;34.60;25.15;;;;;;;;;;5114758;27;20126;-66
2020/12/03 01:22:44;;;;;;;36.13;24.38;;;;;;;;;;5114362;27;20039;-66
2020/12/03 01:25:30;;;;;;;32.60;23.77;;;;;;;;;;5096948;27;20492;-66
2020/12/03 01:28:16;;;;;;;34.60;24.45;;;;;;;;;;5113748;27;20035;-66
2020/12/03 01:31:03;;;;;;;34.03;24.17;;;;;;;;;;5097825;27;20089;-66
2020/12/03 01:33:49;;;;;;;30.10;23.20;;;;;;;;;;5100598;27;20047;-66
2020/12/03 01:36:35;;;;;;;33.63;23.27;;;;;;;;;;5112921;27;20111;-66
2020/12/03 01:39:21;;;;;;;37.47;23.58;;;;;;;;;;5114009;27;20043;-65
2020/12/03 01:42:07;;;;;;;33.47;23.88;;;;;;;;;;5100686;27;20046;-66
2020/12/03 01:44:54;;;;;;;34.47;23.80;;;;;;;;;;5093349;27;20035;-66
2020/12/03 01:47:42;;;;;;;34.33;22.85;;;;;;;;;;5114005;27;20030;-66
2020/12/03 01:50:27;;;;;;;30.30;22.08;;;;;;;;;;5112213;27;20114;-65
2020/12/03 01:53:16;;;;;;;31.70;23.05;;;;;;;;;;5113522;27;20063;-66
2020/12/03 01:56:06;;;;;;;31.15;21.23;;;;;;;;;;5112987;27;20496;-66
2020/12/03 01:58:54;;;;;;;30.98;22.13;;;;;;;;;;5110511;27;20130;-66
2020/12/03 02:01:40;;;;;;;27.55;21.02;;;;;;;;;;5113577;27;20027;-66
2020/12/03 02:04:27;;;;;;;32.67;22.98;;;;;;;;;;5112191;27;20031;-66
2020/12/03 02:07:14;;;;;;;32.90;21.52;;;;;;;;;;5112742;27;20127;-66
2020/12/03 02:09:59;;;;;;;29.02;20.80;;;;;;;;;;5114043;27;20043;-66
2020/12/03 02:12:45;;;;;;;31.27;21.85;;;;;;;;;;5110617;27;20463;-66
2020/12/03 02:15:31;;;;;;;32.38;21.40;;;;;;;;;;5114147;27;20035;-66
2020/12/03 02:18:17;;;;;;;35.35;22.48;;;;;;;;;;5113874;27;20042;-66
2020/12/03 02:21:02;;;;;;;29.17;20.13;;;;;;;;;;5111932;27;20031;-66
2020/12/03 02:23:48;;;;;;;31.98;21.80;;;;;;;;;;5098629;27;20047;-66
2020/12/03 02:26:34;;;;;;;29.30;21.02;;;;;;;;;;5112493;27;20045;-66
2020/12/03 02:29:20;;;;;;;31.20;20.52;;;;;;;;;;5113927;27;20121;-65
2020/12/03 02:32:06;;;;;;;28.52;22.23;;;;;;;;;;5112393;27;20031;-66
2020/12/03 02:34:52;;;;;;;31.27;21.67;;;;;;;;;;5114860;27;20035;-65
2020/12/03 02:37:41;;;;;;;28.52;21.13;;;;;;;;;;5111309;27;20085;-65
2020/12/03 02:40:27;;;;;;;30.25;22.85;;;;;;;;;;5110785;27;20134;-65
2020/12/03 02:43:13;;;;;;;29.33;20.45;;;;;;;;;;5113196;27;20038;-65
2020/12/03 02:45:59;;;;;;;28.58;20.40;;;;;;;;;;5112627;27;20039;-65
2020/12/03 02:48:44;;;;;;;29.30;20.75;;;;;;;;;;5112681;27;20118;-65
2020/12/03 02:51:30;;;;;;;29.17;21.55;;;;;;;;;;5111105;27;20028;-65
2020/12/03 02:54:16;;;;;;;28.85;20.45;;;;;;;;;;5114872;28;20539;-65
2020/12/03 02:57:02;;;;;;;29.50;21.45;;;;;;;;;;5110585;28;20068;-65
2020/12/03 02:59:49;;;;;;;30.25;20.20;;;;;;;;;;5114196;28;20066;-65
2020/12/03 03:02:34;;;;;;;28.75;21.67;;;;;;;;;;5109923;28;20050;-65
2020/12/03 03:05:20;;;;;;;33.53;21.88;;;;;;;;;;5112669;28;20535;-65
2020/12/03 03:08:05;;;;;;;30.90;21.55;;;;;;;;;;5113819;28;20113;-65
2020/12/03 03:10:51;;;;;;;31.08;22.08;;;;;;;;;;5101550;28;20035;-65
2020/12/03 03:13:37;;;;;;;29.92;21.73;;;;;;;;;;5117477;28;20028;-65
2020/12/03 03:16:23;;;;;;;32.92;22.70;;;;;;;;;;5111174;28;20115;-65
2020/12/03 03:19:08;;;;;;;31.08;21.75;;;;;;;;;;5112379;28;20093;-65
2020/12/03 03:21:54;;;;;;;31.48;22.80;;;;;;;;;;5111820;28;20031;-65
2020/12/03 03:24:40;;;;;;;31.25;22.83;;;;;;;;;;5110913;28;20061;-65
2020/12/03 03:27:26;;;;;;;27.65;21.58;;;;;;;;;;5113413;27;20020;-65
2020/12/03 03:30:11;;;;;;;32.28;23.08;;;;;;;;;;5116044;27;20476;-65
2020/12/03 03:32:57;;;;;;;33.53;23.50;;;;;;;;;;5115969;27;20072;-65
2020/12/03 03:35:43;;;;;;;32.15;23.02;;;;;;;;;;5113582;27;20459;-65
2020/12/03 03:38:28;;;;;;;36.22;24.17;;;;;;;;;;5114500;27;20039;-65
2020/12/03 03:41:14;;;;;;;35.00;24.70;;;;;;;;;;5114559;27;20046;-65
2020/12/03 03:44:00;;;;;;;38.60;25.00;;;;;;;;;;5117589;27;20062;-65
2020/12/03 03:46:47;;;;;;;34.08;22.85;;;;;;;;;;5115961;27;20038;-65
2020/12/03 03:49:32;;;;;;;36.10;23.45;;;;;;;;;;5116051;27;20119;-65
2020/12/03 03:52:18;;;;;;;37.53;24.88;;;;;;;;;;5116180;27;20365;-65
2020/12/03 03:55:05;;;;;;;37.65;25.00;;;;;;;;;;5115141;27;20038;-65
2020/12/03 03:57:51;;;;;;;46.80;25.30;;;;;;;;;;5115863;27;20508;-65
2020/12/03 04:00:41;;;;;;;42.22;27.45;;;;;;;;;;5115553;27;20032;-65
2020/12/03 04:03:27;;;;;;;44.80;26.67;;;;;;;;;;5114703;27;20039;-65
2020/12/03 04:06:13;;;;;;;37.97;26.52;;;;;;;;;;5115804;27;20035;-65
2020/12/03 04:08:58;;;;;;;38.28;26.05;;;;;;;;;;5118961;27;20062;-65
2020/12/03 04:11:44;;;;;;;41.75;26.55;;;;;;;;;;5114810;27;20079;-65
2020/12/03 04:14:30;;;;;;;40.83;27.23;;;;;;;;;;5115033;27;20039;-65
2020/12/03 04:17:16;;;;;;;46.45;27.20;;;;;;;;;;5116071;27;20051;-65
2020/12/03 04:20:05;;;;;;;44.38;28.25;;;;;;;;;;5112375;27;20050;-65
2020/12/03 04:22:50;;;;;;;46.47;28.15;;;;;;;;;;5115869;27;20032;-65
2020/12/03 04:25:36;;;;;;;42.03;27.55;;;;;;;;;;5117509;27;20399;-65
2020/12/03 04:28:22;;;;;;;42.97;28.25;;;;;;;;;;5115489;27;20515;-65
2020/12/03 04:31:09;;;;;;;39.17;27.08;;;;;;;;;;5110339;27;20481;-65
2020/12/03 04:33:54;;;;;;;45.88;27.98;;;;;;;;;;5116144;27;20089;-65
2020/12/03 04:36:40;;;;;;;47.20;28.65;;;;;;;;;;5112444;27;20035;-65
2020/12/03 04:39:26;;;;;;;47.17;26.63;;;;;;;;;;5102225;27;20039;-65
2020/12/03 04:42:24;;;;;;;43.65;27.02;;;;;;;;;;5098770;27;20049;-65
2020/12/03 04:45:40;;;;;;;41.78;26.90;;;;;;;;;;5115077;27;20146;-65
2020/12/03 04:48:42;;;;;;;39.58;26.00;;;;;;;;;;5113763;27;20512;-65
2020/12/03 04:52:06;;;;;;;43.67;26.73;;;;;;;;;;5098817;27;20043;-65
2020/12/03 04:55:17;;;;;;;41.85;25.50;;;;;;;;;;5117128;27;20424;-65
2020/12/03 04:58:39;;;;;;;43.50;27.58;;;;;;;;;;5113861;27;20123;-65
2020/12/03 05:01:27;;;;;;;43.22;25.90;;;;;;;;;;5113236;27;20032;-65
2020/12/03 05:04:20;;;;;;;35.58;24.23;;;;;;;;;;5116443;27;20109;-65
2020/12/03 05:07:08;;;;;;;40.15;24.90;;;;;;;;;;5113817;27;20030;-65
2020/12/03 05:10:00;;;;;;;39.97;24.48;;;;;;;;;;5114119;27;20035;-65
2020/12/03 05:12:47;;;;;;;33.90;24.30;;;;;;;;;;5101602;27;20051;-65
2020/12/03 05:15:34;;;;;;;39.50;24.50;;;;;;;;;;5113036;27;20474;-65
2020/12/03 05:18:29;;;;;;;37.28;25.13;;;;;;;;;;5101993;27;20526;-65
2020/12/03 05:21:20;;;;;;;34.17;22.05;;;;;;;;;;5115327;27;20044;-65
2020/12/03 05:24:10;;;;;;;36.67;23.67;;;;;;;;;;5114688;27;20051;-65
2020/12/03 05:26:56;;;;;;;36.45;22.30;;;;;;;;;;5115826;27;20525;-65
2020/12/03 05:29:41;;;;;;;29.58;22.77;;;;;;;;;;5115053;27;20039;-65
2020/12/03 05:32:27;;;;;;;32.90;22.00;;;;;;;;;;5111571;27;20028;-65
2020/12/03 05:35:13;;;;;;;30.13;21.92;;;;;;;;;;5115372;27;20537;-65
2020/12/03 05:37:58;;;;;;;30.20;22.88;;;;;;;;;;5102441;27;20067;-65
2020/12/03 05:41:00;;;;;;;33.40;22.50;;;;;;;;;;5114629;27;20110;-65
2020/12/03 05:43:46;;;;;;;28.95;21.67;;;;;;;;;;5113765;27;20039;-65
2020/12/03 05:46:33;;;;;;;32.33;21.27;;;;;;;;;;5113336;27;20031;-66
2020/12/03 05:49:27;;;;;;;31.00;21.60;;;;;;;;;;5113282;27;20498;-66
2020/12/03 05:52:17;;;;;;;29.95;21.58;;;;;;;;;;5113284;27;20661;-65
2020/12/03 05:55:05;;;;;;;27.92;21.70;;;;;;;;;;5112613;27;20043;-65
2020/12/03 05:57:51;;;;;;;36.80;21.90;;;;;;;;;;5112678;27;20497;-65
2020/12/03 06:00:38;;;;;;;31.38;22.15;;;;;;;;;;5113879;27;20027;-65
2020/12/03 06:03:39;;;;;;;29.52;20.85;;;;;;;;;;5112000;27;20613;-65
2020/12/03 06:06:55;;;;;;;35.80;22.40;;;;;;;;;;5113838;27;20205;-65
2020/12/03 06:10:22;;;;;;;29.55;21.98;;;;;;;;;;5084949;27;20609;-65
2020/12/03 06:13:39;;;;;;;28.75;21.02;;;;;;;;;;5021066;28;20683;-65
2020/12/03 06:16:44;;;;;;;28.92;20.70;;;;;;;;;;4990917;28;20053;-65
2020/12/03 06:19:39;;;;;;;28.65;22.13;;;;;;;;;;5111556;27;20047;-66
2020/12/03 06:22:35;;;;;;;26.17;21.00;;;;;;;;;;5103075;27;20546;-66
2020/12/03 06:25:44;;;;;;;27.77;21.15;;;;;;;;;;5115739;27;20933;-65
2020/12/03 06:28:38;;;;;;;26.10;20.23;;;;;;;;;;5111868;27;20039;-66
2020/12/03 06:31:55;;;;;;;28.45;21.73;;;;;;;;;;5112076;27;20035;-66
2020/12/03 06:34:40;;;;;;;28.70;21.15;;;;;;;;;;5113904;27;20499;-66
2020/12/03 06:37:30;;;;;;;36.45;20.85;;;;;;;;;;5108960;27;20674;-66
2020/12/03 06:40:22;;;;;;;29.25;21.25;;;;;;;;;;5115060;27;20035;-66
2020/12/03 06:43:18;;;;;;;27.25;19.52;;;;;;;;;;5117776;27;20058;-66
2020/12/03 06:46:39;;;;;;;28.90;20.60;;;;;;;;;;5098652;27;20031;-67
2020/12/03 06:49:40;;;;;;;29.73;21.63;;;;;;;;;;5054215;28;20076;-65
2020/12/03 06:52:48;;;;;;;32.95;21.40;;;;;;;;;;5113677;27;20528;-66
2020/12/03 06:56:11;;;;;;;32.10;22.42;;;;;;;;;;5113690;28;20034;-67
2020/12/03 06:59:19;;;;;;;29.13;20.85;;;;;;;;;;5113259;28;20035;-67
2020/12/03 07:02:42;;;;;;;30.98;21.83;;;;;;;;;;5111587;28;20040;-67
2020/12/03 07:06:01;;;;;;;25.80;20.65;;;;;;;;;;5116360;27;20024;-67
2020/12/03 07:09:11;;;;;;;27.17;20.77;;;;;;;;;;5120458;27;20117;-66
2020/12/03 07:12:33;;;;;;;30.45;22.17;;;;;;;;;;5115815;27;20023;-67
2020/12/03 07:15:56;;;;;;;33.45;23.80;;;;;;;;;;5117991;27;20114;-66
2020/12/03 07:19:23;;;;;;;35.78;23.95;;;;;;;;;;5119127;27;20054;-65
2020/12/03 07:22:28;;;;;;;31.80;22.98;;;;;;;;;;5117733;27;20027;-65
2020/12/03 07:25:15;;;;;;;31.23;23.98;;;;;;;;;;5116471;27;20043;-65
2020/12/03 07:28:23;;;;;;;29.98;22.88;;;;;;;;;;5116252;27;20039;-66
2020/12/03 07:31:24;;;;;;;34.47;24.83;;;;;;;;;;5116671;27;20152;-65
2020/12/03 07:34:24;;;;;;;36.50;25.25;;;;;;;;;;5117221;27;20039;-65
2020/12/03 07:37:41;;;;;;;36.65;25.27;;;;;;;;;;5115378;27;20096;-66
2020/12/03 07:40:27;;;;;;;33.10;25.98;;;;;;;;;;5115378;27;20043;-65
2020/12/03 07:43:39;;;;;;;33.13;25.15;;;;;;;;;;5111843;27;20047;-63
2020/12/03 07:46:27;;;;;;;34.13;25.05;;;;;;;;;;5099808;27;20867;-64
2020/12/03 07:49:42;;;;;;;32.70;24.73;;;;;;;;;;5117320;27;20028;-64
2020/12/03 07:52:36;;;;;;;34.13;24.13;;;;;;;;;;5110813;27;20031;-67
2020/12/03 07:55:22;;;;;;;36.10;26.30;;;;;;;;;;5113621;27;20483;-66
2020/12/03 07:58:31;;;;;;;32.22;25.00;;;;;;;;;;5112769;27;20035;-66
2020/12/03 08:01:26;;;;;;;31.65;24.90;;;;;;;;;;5114652;27;20038;-67
2020/12/03 08:04:12;;;;;;;31.77;24.73;;;;;;;;;;5114939;27;20035;-67
2020/12/03 08:07:03;;;;;;;37.65;26.23;;;;;;;;;;5114516;27;20050;-67
2020/12/03 08:09:49;;;;;;;;;;;;;;;;;;5119107;27;20546;-65
2020/12/03 08:12:35;;;;;;;33.17;24.35;;;;;;;;;;5113840;27;19918;-65
2020/12/03 08:15:34;;;;;;;34.28;25.45;;;;;;;;;;5111431;27;20447;-66
2020/12/03 08:18:41;;;;;;;31.83;25.10;;;;;;;;;;5113025;27;20039;-67
2020/12/03 08:21:38;;;;;;;34.45;26.50;;;;;;;;;;5113910;27;20598;-66
2020/12/03 08:24:33;;;;;;;33.35;25.20;;;;;;;;;;5114361;27;20035;-64
2020/12/03 08:27:19;;;;;;;33.42;24.48;;;;;;;;;;5110437;27;20035;-64
2020/12/03 08:30:33;;;;;;;31.50;25.27;;;;;;;;;;5113562;27;20115;-64
2020/12/03 08:33:29;;;;;;;34.75;24.67;;;;;;;;;;5112163;27;20035;-64
2020/12/03 08:36:16;;;;;;;33.90;25.13;;;;;;;;;;5103072;27;20060;-63
2020/12/03 08:39:09;;;;;;;35.15;26.17;;;;;;;;;;5107561;27;20043;-63
2020/12/03 08:42:00;;;;;;;32.75;25.45;;;;;;;;;;5110629;27;20043;-64
2020/12/03 08:44:53;;;;;;;36.08;24.40;;;;;;;;;;5109704;27;20123;-64
2020/12/03 08:47:46;;;;;;;34.97;25.23;;;;;;;;;;5113837;27;20488;-63
2020/12/03 08:50:33;;;;;;;35.33;25.73;;;;;;;;;;5098275;27;20038;-64
2020/12/03 08:53:34;;;;;;;34.95;25.55;;;;;;;;;;5092575;27;20035;-63
2020/12/03 08:56:38;;;;;;;31.58;23.90;;;;;;;;;;5113501;27;20091;-63
2020/12/03 08:59:34;;;;;;;44.70;25.88;;;;;;;;;;5106920;27;20043;-64
2020/12/03 09:02:30;;;;;;;36.15;24.73;;;;;;;;;;5102873;27;20063;-63
2020/12/03 09:05:17;;;;;;;35.22;26.70;;;;;;;;;;5102826;27;20036;-73
2020/12/03 09:08:04;;;;;;;31.95;24.42;;;;;;;;;;5115295;27;20035;-74
2020/12/03 09:10:55;;;;;;;35.63;24.95;;;;;;;;;;5112953;27;20040;-68
2020/12/03 09:13:42;;;;;;;;;;;;;;;;;;5115895;27;20490;-68
2020/12/03 09:16:36;;;;;;;32.85;22.63;;;;;;;;;;5111249;27;20686;-75
2020/12/03 09:19:29;;;;;;;29.35;23.13;;;;;;;;;;5116926;27;20050;-75
2020/12/03 09:22:16;;;;;;;31.95;22.95;;;;;;;;;;5101036;27;20075;-67
2020/12/03 09:25:05;;;;;;;33.50;25.15;;;;;;;;;;5098159;27;20035;-67
2020/12/03 09:27:52;;;;;;;32.08;23.17;;;;;;;;;;5095838;27;20031;-66
2020/12/03 09:30:40;;;;;;;28.98;20.92;;;;;;;;;;5116158;27;20035;-66
2020/12/03 09:33:26;;;;;;;32.42;21.60;;;;;;;;;;5112384;27;20058;-67
2020/12/03 09:36:12;;;;;;;33.40;21.77;;;;;;;;;;5096990;27;20058;-65
2020/12/03 09:38:59;;;;;;;27.33;21.52;;;;;;;;;;5118040;27;20416;-66
2020/12/03 09:41:45;;;;;;;32.58;21.23;;;;;;;;;;5111748;27;20050;-74
2020/12/03 09:44:33;;;;;;;27.02;20.70;;;;;;;;;;5113292;27;20038;-75
2020/12/03 09:47:24;;;;;;;26.88;20.10;;;;;;;;;;5109755;27;20031;-74
2020/12/03 09:50:13;;;;;;;25.83;20.83;;;;;;;;;;5115149;27;20119;-66
2020/12/03 09:53:00;;;;;;;30.33;20.75;;;;;;;;;;5111542;27;20028;-66
2020/12/03 09:55:47;;;;;;;31.85;20.92;;;;;;;;;;5116587;27;20042;-64
2020/12/03 09:58:33;;;;;;;24.38;18.92;;;;;;;;;;5113060;27;20039;-64
2020/12/03 10:01:22;;;;;;;28.10;20.95;;;;;;;;;;5113672;27;20035;-65
2020/12/03 10:04:45;;;;;;;32.45;20.67;;;;;;;;;;5115792;27;20101;-62
2020/12/03 10:08:00;;;;;;;29.48;22.27;;;;;;;;;;5110844;27;20741;-62
2020/12/03 10:10:58;;;;;;;31.98;21.02;;;;;;;;;;5116432;27;20413;-62
2020/12/03 10:14:10;;;;;;;26.20;20.75;;;;;;;;;;5110039;27;20042;-62
2020/12/03 10:17:09;;;;;;;28.55;19.90;;;;;;;;;;5110548;27;20118;-62
2020/12/03 10:19:55;;;;;;;24.90;20.35;;;;;;;;;;5114131;27;20125;-62
2020/12/03 10:23:13;;;;;;;24.30;20.08;;;;;;;;;;5113412;27;20126;-62
2020/12/03 10:26:13;;;;;;;23.80;18.58;;;;;;;;;;5114390;27;20031;-61
2020/12/03 10:29:25;;;;;;;23.45;19.08;;;;;;;;;;5112180;27;20036;-61
2020/12/03 10:32:15;;;;;;;;;;;;;;;;;;5078500;27;20091;-65
2020/12/03 10:35:03;;;;;;;25.17;18.58;;;;;;;;;;5114496;27;20007;-65
2020/12/03 10:38:02;;;;;;;27.55;19.92;;;;;;;;;;5115049;27;20050;-66
2020/12/03 10:40:57;;;;;;;28.48;19.83;;;;;;;;;;5113010;27;20039;-65
2020/12/03 10:43:46;;;;;;;29.83;20.73;;;;;;;;;;5091128;27;20488;-61
2020/12/03 10:46:40;;;;;;;28.42;19.80;;;;;;;;;;5110505;27;20048;-61
2020/12/03 10:49:26;;;;;;;30.42;21.00;;;;;;;;;;5112374;27;20028;-61
2020/12/03 10:52:17;;;;;;;31.08;21.58;;;;;;;;;;5111946;27;20423;-66
2020/12/03 10:55:03;;;;;;;31.35;22.52;;;;;;;;;;5097072;28;20483;-65
2020/12/03 10:57:58;;;;;;;27.63;21.42;;;;;;;;;;5111316;28;20094;-67
2020/12/03 11:00:47;;;;;;;32.55;23.02;;;;;;;;;;5111630;28;20123;-66
2020/12/03 11:03:35;;;;;;;31.17;22.83;;;;;;;;;;5110950;28;20072;-66
2020/12/03 11:06:23;;;;;;;32.78;22.98;;;;;;;;;;5113536;28;20039;-67
2020/12/03 11:09:17;;;;;;;30.80;23.92;;;;;;;;;;5113792;28;20066;-68
2020/12/03 11:12:07;;;;;;;30.55;24.15;;;;;;;;;;5112402;28;20114;-68
2020/12/03 11:14:53;;;;;;;31.17;21.77;;;;;;;;;;5115228;28;20092;-62
2020/12/03 11:18:04;;;;;;;32.10;23.80;;;;;;;;;;5096886;28;20042;-62
2020/12/03 11:20:58;;;;;;;29.03;21.63;;;;;;;;;;5107714;28;20110;-64
2020/12/03 11:24:14;;;;;;;27.20;22.25;;;;;;;;;;5113611;28;20594;-63
2020/12/03 11:27:04;;;;;;;31.00;22.63;;;;;;;;;;5087532;28;20035;-62
2020/12/03 11:29:50;;;;;;;34.38;22.83;;;;;;;;;;5111425;28;20739;-63
2020/12/03 11:32:45;;;;;;;30.60;23.02;;;;;;;;;;5111403;28;20036;-62
2020/12/03 11:35:34;;;;;;;29.88;23.55;;;;;;;;;;5115134;28;20126;-63
2020/12/03 11:38:19;;;;;;;32.85;22.85;;;;;;;;;;5112752;28;20031;-63
2020/12/03 11:41:17;;;;;;;34.03;20.45;;;;;;;;;;5115750;28;20501;-64
2020/12/03 11:50:15;;;;;;;31.15;21.50;;;;;;;;;;5118289;28;20137;-64
2020/12/03 11:53:01;;;;;;;29.45;20.42;;;;;;;;;;5115163;27;20110;-64
2020/12/03 11:55:47;;;;;;;29.25;19.67;;;;;;;;;;5121556;27;20047;-63
2020/12/03 11:58:32;;;;;;;27.40;20.77;;;;;;;;;;5115441;27;20038;-62
2020/12/03 12:01:18;;;;;;;26.05;19.20;;;;;;;;;;5116220;27;20418;-63
2020/12/03 12:04:06;;;;;;;25.50;19.15;;;;;;;;;;5107182;27;20232;-63
2020/12/03 12:12:38;;;;;;;27.15;17.48;;;;;;;;;;5118848;27;20024;-63
2020/12/03 12:15:24;;;;;;;23.83;16.33;;;;;;;;;;5118181;27;20093;-63
2020/12/03 12:18:09;;;;;;;22.20;16.08;;;;;;;;;;5112868;27;20062;-62
2020/12/03 12:20:55;;;;;;;23.55;16.00;;;;;;;;;;5116346;27;20039;-61
2020/12/03 12:23:41;;;;;;;23.05;15.30;;;;;;;;;;5114416;27;20691;-61
2020/12/03 12:26:28;;;;;;;20.10;14.95;;;;;;;;;;5116212;27;20514;-66
2020/12/03 12:29:14;;;;;;;23.33;16.95;;;;;;;;;;5117695;27;20062;-67
2020/12/03 12:32:00;;;;;;;23.42;15.90;;;;;;;;;;5112021;27;20027;-67
2020/12/03 12:34:46;;;;;;;20.50;15.13;;;;;;;;;;5115150;27;20638;-64
2020/12/03 12:37:31;;;;;;;19.95;16.05;;;;;;;;;;5115044;27;20039;-64
2020/12/03 12:40:17;;;;;;;20.90;15.35;;;;;;;;;;5114907;27;20055;-64
2020/12/03 12:43:03;;;;;;;23.35;15.48;;;;;;;;;;5115622;27;20050;-65
2020/12/03 12:45:49;;;;;;;20.80;14.68;;;;;;;;;;5115539;27;20108;-65
2020/12/03 12:48:35;;;;;;;18.92;13.88;;;;;;;;;;5098424;27;20031;-67
2020/12/03 12:51:20;;;;;;;16.35;13.50;;;;;;;;;;5116501;27;20035;-64
2020/12/03 12:54:06;;;;;;;21.75;15.43;;;;;;;;;;5113873;27;20027;-66
2020/12/03 12:56:54;;;;;;;16.25;12.63;;;;;;;;;;5114176;27;20346;-64
2020/12/03 12:59:41;;;;;;;23.98;13.68;;;;;;;;;;5114341;27;20520;-63
2020/12/03 13:02:27;;;;;;;17.80;13.80;;;;;;;;;;5114285;27;20144;-63
2020/12/03 13:05:19;;;;;;;18.88;14.20;;;;;;;;;;5116066;27;20043;-66
2020/12/03 13:08:05;;;;;;;20.95;13.82;;;;;;;;;;5115390;27;20023;-67
2020/12/03 13:10:53;;;;;;;19.83;14.35;;;;;;;;;;5119325;27;20032;-66
2020/12/03 13:13:39;;;;;;;18.88;13.98;;;;;;;;;;5111376;27;20042;-66
2020/12/03 13:16:25;;;;;;;18.48;13.65;;;;;;;;;;5115421;27;20089;-65
2020/12/03 13:19:11;;;;;;;18.45;12.75;;;;;;;;;;5113296;27;20527;-61
2020/12/03 13:21:57;;;;;;;18.60;12.52;;;;;;;;;;5114011;27;20035;-62
2020/12/03 13:24:43;;;;;;;17.55;13.88;;;;;;;;;;5116826;27;20047;-62
2020/12/03 13:27:29;;;;;;;15.45;12.40;;;;;;;;;;5115485;27;20031;-62
2020/12/03 13:30:15;;;;;;;19.40;13.52;;;;;;;;;;5112656;27;20031;-62
2020/12/03 13:33:01;;;;;;;17.70;12.73;;;;;;;;;;5113919;27;20073;-63
2020/12/03 13:35:49;;;;;;;20.17;13.40;;;;;;;;;;5116554;27;20035;-63
2020/12/03 13:38:35;;;;;;;22.08;14.68;;;;;;;;;;5114265;27;20023;-63
2020/12/03 13:41:22;;;;;;;16.42;12.38;;;;;;;;;;5115643;27;20066;-61
2020/12/03 13:44:08;;;;;;;17.77;13.15;;;;;;;;;;5115890;27;20484;-61
2020/12/03 13:46:54;;;;;;;23.65;13.95;;;;;;;;;;5117044;27;20072;-62
2020/12/03 13:49:40;;;;;;;16.85;12.85;;;;;;;;;;5113485;27;20062;-61
2020/12/03 13:52:26;;;;;;;18.73;13.55;;;;;;;;;;5111601;27;20039;-63
2020/12/03 13:55:11;;;;;;;22.23;13.82;;;;;;;;;;5116066;27;20031;-62
2020/12/03 13:57:59;;;;;;;21.52;12.48;;;;;;;;;;5115077;27;20035;-63
2020/12/03 14:00:44;;;;;;;17.27;13.50;;;;;;;;;;5114282;27;20035;-62
2020/12/03 14:03:31;;;;;;;19.17;13.57;;;;;;;;;;5113129;27;20042;-63
2020/12/03 14:06:17;;;;;;;18.65;14.02;;;;;;;;;;5115982;27;20039;-62
2020/12/03 14:09:04;;;;;;;17.88;13.02;;;;;;;;;;5110816;27;20508;-63
2020/12/03 14:11:49;;;;;;;14.95;12.18;;;;;;;;;;5114084;27;20082;-63
2020/12/03 14:14:35;;;;;;;18.08;12.68;;;;;;;;;;5114323;27;20123;-63
2020/12/03 14:17:20;;;;;;;19.13;12.43;;;;;;;;;;5100359;27;20121;-63
2020/12/03 14:20:06;;;;;;;16.10;11.77;;;;;;;;;;5114775;27;20118;-62
2020/12/03 14:22:52;;;;;;;18.85;12.60;;;;;;;;;;5114688;27;20031;-63
2020/12/03 14:25:38;;;;;;;17.80;11.98;;;;;;;;;;5104696;27;20125;-63
2020/12/03 14:28:23;;;;;;;20.65;12.82;;;;;;;;;;5115554;27;20617;-63
2020/12/03 14:31:09;;;;;;;21.92;12.68;;;;;;;;;;5113013;27;20074;-63
2020/12/03 14:33:55;;;;;;;14.25;11.55;;;;;;;;;;5111260;27;20050;-63
2020/12/03 14:36:40;;;;;;;16.30;11.95;;;;;;;;;;5115023;27;20039;-62
2020/12/03 14:39:26;;;;;;;15.95;11.63;;;;;;;;;;5117721;27;20108;-63
2020/12/03 14:42:12;;;;;;;14.25;10.80;;;;;;;;;;5114939;27;20140;-62
2020/12/03 14:44:58;;;;;;;15.75;11.48;;;;;;;;;;5117130;27;20134;-63
2020/12/03 14:47:44;;;;;;;13.00;9.85;;;;;;;;;;5112847;27;20107;-62
2020/12/03 14:50:31;;;;;;;14.77;11.10;;;;;;;;;;5105126;27;20039;-63
2020/12/03 14:53:17;;;;;;;16.95;10.48;;;;;;;;;;5112696;27;20040;-63
2020/12/03 14:56:04;;;;;;;15.23;10.32;;;;;;;;;;5114035;27;20105;-63
2020/12/03 14:58:52;;;;;;;15.88;10.13;;;;;;;;;;5114222;28;20040;-63
2020/12/03 15:01:38;;;;;;;15.63;10.32;;;;;;;;;;5113727;28;20040;-62
2020/12/03 15:04:24;;;;;;;14.20;9.55;;;;;;;;;;5113104;27;20122;-62
2020/12/03 15:07:09;;;;;;;17.30;9.70;;;;;;;;;;5109727;28;20032;-62
2020/12/03 15:09:59;;;;;;;15.20;9.27;;;;;;;;;;5112580;28;20031;-67
2020/12/03 15:12:45;;;;;;;13.02;8.60;;;;;;;;;;5111656;28;20046;-67
2020/12/03 15:15:31;;;;;;;13.57;8.60;;;;;;;;;;5113347;28;20456;-67
2020/12/03 15:18:16;;;;;;;10.63;7.72;;;;;;;;;;5113083;28;20039;-67
2020/12/03 15:21:02;;;;;;;11.77;8.02;;;;;;;;;;5114943;28;20118;-67
2020/12/03 15:23:48;;;;;;;9.93;7.95;;;;;;;;;;5104315;28;20043;-67
2020/12/03 15:26:34;;;;;;;10.02;7.25;;;;;;;;;;5114308;27;20050;-67
2020/12/03 15:29:20;;;;;;;18.23;8.48;;;;;;;;;;5116487;27;20023;-67
2020/12/03 15:32:06;;;;;;;10.38;7.88;;;;;;;;;;5113883;27;20059;-67
2020/12/03 15:34:54;;;;;;;12.68;8.02;;;;;;;;;;5104935;27;20043;-67
2020/12/03 15:37:39;;;;;;;10.77;7.03;;;;;;;;;;5115529;27;20503;-67
2020/12/03 15:40:25;;;;;;;14.25;10.07;;;;;;;;;;5106545;27;20088;-67
2020/12/03 15:43:11;;;;;;;20.63;13.50;;;;;;;;;;5114091;27;20035;-66
2020/12/03 15:45:57;;;;;;;186.60;85.50;;;;;;;;;;5118015;27;20023;-67
2020/12/03 15:48:42;;;;;;;99.57;51.63;;;;;;;;;;5118374;27;20046;-66
2020/12/03 15:51:28;;;;;;;322.98;190.40;;;;;;;;;;5120776;27;20484;-67
2020/12/03 15:54:14;;;;;;;97.63;59.15;;;;;;;;;;5117361;27;20096;-67
2020/12/03 15:57:00;;;;;;;92.95;60.80;;;;;;;;;;5120431;27;20523;-67
2020/12/03 15:59:46;;;;;;;164.65;110.75;;;;;;;;;;5116692;27;20043;-66
2020/12/03 16:02:32;;;;;;;38.58;24.08;;;;;;;;;;5113556;27;20061;-66
2020/12/03 16:05:17;;;;;;;310.10;230.77;;;;;;;;;;5118882;27;20034;-67
2020/12/03 16:08:04;;;;;;;233.05;159.27;;;;;;;;;;5112293;27;20028;-67
2020/12/03 16:10:49;;;;;;;140.88;95.53;;;;;;;;;;5117681;27;20036;-66
2020/12/03 16:13:44;;;;;;;33.40;25.42;;;;;;;;;;5115877;27;20040;-67
2020/12/03 16:16:30;;;;;;;16.67;13.63;;;;;;;;;;5115163;27;20034;-66
2020/12/03 16:19:16;;;;;;;24.25;17.38;;;;;;;;;;5114525;27;20449;-66
2020/12/03 16:22:03;;;;;;;15.63;10.20;;;;;;;;;;5114963;27;20086;-66
2020/12/03 16:24:48;;;;;;;21.05;15.50;;;;;;;;;;5115207;27;20043;-65
2020/12/03 16:27:34;;;;;;;20.67;12.43;;;;;;;;;;5114241;27;20047;-65
2020/12/03 16:30:20;;;;;;;12.57;8.75;;;;;;;;;;5118626;27;20074;-61
2020/12/03 16:33:05;;;;;;;11.32;9.15;;;;;;;;;;5119513;27;20050;-66
2020/12/03 16:35:51;;;;;;;10.48;8.02;;;;;;;;;;5117404;27;20055;-66
2020/12/03 16:38:38;;;;;;;11.98;8.52;;;;;;;;;;5117968;27;20444;-66
2020/12/03 16:41:26;;;;;;;15.40;8.95;;;;;;;;;;5117922;27;20376;-65
2020/12/03 16:44:12;;;;;;;12.55;8.35;;;;;;;;;;5119157;27;20534;-63
2020/12/03 16:46:58;;;;;;;12.77;8.60;;;;;;;;;;5115590;27;20047;-62